sensor_id;sensor_type;location;lat;lon;timestamp;P1;durP1;ratioP1;P2;durP2;ratioP2
29724;SDS011;16636;48.394;15.468;2022-11-18T00:01:12;28.75;;;15.18;;
29724;SDS011;16636;48.394;15.468;2022-11-18T00:03:40;24.52;;;13.00;;
29724;SDS011;16636;48.394;15.468;2022-11-18T00:06:09;28.88;;;15.20;;
29724;SDS011;16636;48.394;15.468;2022-11-18T00:08:37;29.50;;;14.10;;
29724;SDS011;16636;48.394;15.468;2022-11-18T00:11:07;28.85;;;13.57;;
29724;SDS011;16636;48.394;15.468;2022-11-18T00:13:36;26.90;;;12.43;;
29724;SDS011;16636;48.394;15.468;2022-11-18T00:16:21;29.90;;;13.05;;
29724;SDS011;16636;48.394;15.468;2022-11-18T00:18:47;27.83;;;14.20;;
29724;SDS011;16636;48.394;15.468;2022-11-18T00:21:13;25.23;;;14.13;;
29724;SDS011;16636;48.394;15.468;2022-11-18T00:23:40;25.63;;;12.90;;
29724;SDS011;16636;48.394;15.468;2022-11-18T00:26:13;24.92;;;12.10;;
29724;SDS011;16636;48.394;15.468;2022-11-18T00:28:39;28.05;;;12.60;;
29724;SDS011;16636;48.394;15.468;2022-11-18T00:31:07;22.55;;;12.45;;
29724;SDS011;16636;48.394;15.468;2022-11-18T00:33:37;26.30;;;12.25;;
29724;SDS011;16636;48.394;15.468;2022-11-18T00:36:05;23.30;;;12.57;;
29724;SDS011;16636;48.394;15.468;2022-11-18T00:38:33;23.77;;;11.98;;
29724;SDS011;16636;48.394;15.468;2022-11-18T00:41:20;20.63;;;10.80;;
29724;SDS011;16636;48.394;15.468;2022-11-18T00:43:45;19.45;;;10.77;;
29724;SDS011;16636;48.394;15.468;2022-11-18T00:46:12;18.20;;;9.43;;
29724;SDS011;16636;48.394;15.468;2022-11-18T00:48:38;24.15;;;11.70;;
29724;SDS011;16636;48.394;15.468;2022-11-18T00:51:06;19.98;;;10.23;;
29724;SDS011;16636;48.394;15.468;2022-11-18T00:53:35;23.17;;;11.68;;
29724;SDS011;16636;48.394;15.468;2022-11-18T00:56:01;20.90;;;11.38;;
29724;SDS011;16636;48.394;15.468;2022-11-18T00:58:27;27.00;;;12.32;;
29724;SDS011;16636;48.394;15.468;2022-11-18T01:00:54;20.60;;;10.95;;
29724;SDS011;16636;48.394;15.468;2022-11-18T01:03:20;28.00;;;12.77;;
29724;SDS011;16636;48.394;15.468;2022-11-18T01:05:46;20.98;;;10.98;;
29724;SDS011;16636;48.394;15.468;2022-11-18T01:08:13;23.08;;;12.20;;
29724;SDS011;16636;48.394;15.468;2022-11-18T01:10:39;23.08;;;11.02;;
29724;SDS011;16636;48.394;15.468;2022-11-18T01:13:06;27.85;;;12.05;;
29724;SDS011;16636;48.394;15.468;2022-11-18T01:15:54;24.55;;;12.27;;
29724;SDS011;16636;48.394;15.468;2022-11-18T01:18:28;24.17;;;12.43;;
29724;SDS011;16636;48.394;15.468;2022-11-18T01:20:59;26.70;;;12.80;;
29724;SDS011;16636;48.394;15.468;2022-11-18T01:23:26;26.27;;;13.57;;
29724;SDS011;16636;48.394;15.468;2022-11-18T01:25:52;28.80;;;12.98;;
29724;SDS011;16636;48.394;15.468;2022-11-18T01:28:18;27.98;;;14.27;;
29724;SDS011;16636;48.394;15.468;2022-11-18T01:30:44;28.65;;;14.35;;
29724;SDS011;16636;48.394;15.468;2022-11-18T01:33:10;26.00;;;13.65;;
29724;SDS011;16636;48.394;15.468;2022-11-18T01:35:38;27.70;;;15.30;;
29724;SDS011;16636;48.394;15.468;2022-11-18T01:38:06;31.70;;;14.63;;
29724;SDS011;16636;48.394;15.468;2022-11-18T01:40:33;27.80;;;13.18;;
29724;SDS011;16636;48.394;15.468;2022-11-18T01:43:00;35.47;;;14.57;;
29724;SDS011;16636;48.394;15.468;2022-11-18T01:45:33;26.33;;;13.68;;
29724;SDS011;16636;48.394;15.468;2022-11-18T01:48:03;26.08;;;14.20;;
29724;SDS011;16636;48.394;15.468;2022-11-18T01:50:30;25.88;;;13.68;;
29724;SDS011;16636;48.394;15.468;2022-11-18T01:52:59;24.13;;;12.23;;
29724;SDS011;16636;48.394;15.468;2022-11-18T01:55:31;26.65;;;13.23;;
29724;SDS011;16636;48.394;15.468;2022-11-18T01:58:14;26.80;;;13.10;;
29724;SDS011;16636;48.394;15.468;2022-11-18T02:01:03;21.95;;;11.85;;
29724;SDS011;16636;48.394;15.468;2022-11-18T02:03:31;21.65;;;11.20;;
29724;SDS011;16636;48.394;15.468;2022-11-18T02:05:58;19.25;;;10.75;;
29724;SDS011;16636;48.394;15.468;2022-11-18T02:08:25;22.08;;;10.88;;
29724;SDS011;16636;48.394;15.468;2022-11-18T02:10:54;22.27;;;10.15;;
29724;SDS011;16636;48.394;15.468;2022-11-18T02:13:20;21.42;;;10.55;;
29724;SDS011;16636;48.394;15.468;2022-11-18T02:18:53;19.45;;;10.85;;
29724;SDS011;16636;48.394;15.468;2022-11-18T02:21:38;23.85;;;12.05;;
29724;SDS011;16636;48.394;15.468;2022-11-18T02:24:13;26.15;;;13.30;;
29724;SDS011;16636;48.394;15.468;2022-11-18T02:29:54;27.02;;;13.13;;
29724;SDS011;16636;48.394;15.468;2022-11-18T02:36:28;28.73;;;12.02;;
29724;SDS011;16636;48.394;15.468;2022-11-18T02:39:04;22.33;;;11.77;;
29724;SDS011;16636;48.394;15.468;2022-11-18T02:41:34;28.05;;;12.40;;
29724;SDS011;16636;48.394;15.468;2022-11-18T02:44:08;21.50;;;11.02;;
29724;SDS011;16636;48.394;15.468;2022-11-18T02:46:38;23.13;;;11.88;;
29724;SDS011;16636;48.394;15.468;2022-11-18T02:49:08;22.15;;;11.68;;
29724;SDS011;16636;48.394;15.468;2022-11-18T02:51:37;22.80;;;11.65;;
29724;SDS011;16636;48.394;15.468;2022-11-18T02:54:06;29.42;;;12.43;;
29724;SDS011;16636;48.394;15.468;2022-11-18T02:56:34;19.95;;;10.75;;
29724;SDS011;16636;48.394;15.468;2022-11-18T02:59:01;23.95;;;12.23;;
29724;SDS011;16636;48.394;15.468;2022-11-18T03:01:29;25.20;;;12.43;;
29724;SDS011;16636;48.394;15.468;2022-11-18T03:03:57;28.00;;;12.27;;
29724;SDS011;16636;48.394;15.468;2022-11-18T03:14:27;26.73;;;12.80;;
29724;SDS011;16636;48.394;15.468;2022-11-18T03:17:32;25.73;;;11.60;;
29724;SDS011;16636;48.394;15.468;2022-11-18T03:30:57;29.60;;;13.27;;
29724;SDS011;16636;48.394;15.468;2022-11-18T03:33:30;24.98;;;12.05;;
29724;SDS011;16636;48.394;15.468;2022-11-18T03:36:04;25.85;;;11.52;;
29724;SDS011;16636;48.394;15.468;2022-11-18T03:38:35;24.17;;;12.65;;
29724;SDS011;16636;48.394;15.468;2022-11-18T03:41:05;28.95;;;13.57;;
29724;SDS011;16636;48.394;15.468;2022-11-18T03:43:36;26.02;;;13.15;;
29724;SDS011;16636;48.394;15.468;2022-11-18T03:46:10;29.58;;;13.32;;
29724;SDS011;16636;48.394;15.468;2022-11-18T03:48:52;24.92;;;12.23;;
29724;SDS011;16636;48.394;15.468;2022-11-18T03:51:43;22.77;;;11.70;;
29724;SDS011;16636;48.394;15.468;2022-11-18T03:54:12;25.90;;;11.73;;
29724;SDS011;16636;48.394;15.468;2022-11-18T03:56:44;27.60;;;12.70;;
29724;SDS011;16636;48.394;15.468;2022-11-18T03:59:15;24.58;;;11.85;;
29724;SDS011;16636;48.394;15.468;2022-11-18T04:01:46;26.45;;;12.15;;
29724;SDS011;16636;48.394;15.468;2022-11-18T04:04:14;25.27;;;12.80;;
29724;SDS011;16636;48.394;15.468;2022-11-18T04:06:41;26.55;;;12.50;;
29724;SDS011;16636;48.394;15.468;2022-11-18T04:09:17;26.70;;;11.55;;
29724;SDS011;16636;48.394;15.468;2022-11-18T04:11:48;22.10;;;11.10;;
29724;SDS011;16636;48.394;15.468;2022-11-18T04:14:28;28.45;;;12.05;;
29724;SDS011;16636;48.394;15.468;2022-11-18T04:17:12;26.60;;;13.23;;
29724;SDS011;16636;48.394;15.468;2022-11-18T04:19:40;27.30;;;13.77;;
29724;SDS011;16636;48.394;15.468;2022-11-18T04:22:06;27.40;;;13.00;;
29724;SDS011;16636;48.394;15.468;2022-11-18T04:24:33;28.13;;;13.88;;
29724;SDS011;16636;48.394;15.468;2022-11-18T04:27:00;27.63;;;11.77;;
29724;SDS011;16636;48.394;15.468;2022-11-18T04:29:27;25.15;;;11.50;;
29724;SDS011;16636;48.394;15.468;2022-11-18T04:31:54;31.92;;;14.15;;
29724;SDS011;16636;48.394;15.468;2022-11-18T04:34:20;26.00;;;13.02;;
29724;SDS011;16636;48.394;15.468;2022-11-18T04:36:46;53.10;;;26.83;;
29724;SDS011;16636;48.394;15.468;2022-11-18T04:39:12;29.58;;;16.23;;
29724;SDS011;16636;48.394;15.468;2022-11-18T04:41:38;28.52;;;13.75;;
29724;SDS011;16636;48.394;15.468;2022-11-18T04:44:20;33.45;;;13.70;;
29724;SDS011;16636;48.394;15.468;2022-11-18T04:46:47;93.00;;;34.38;;
29724;SDS011;16636;48.394;15.468;2022-11-18T04:49:13;109.53;;;40.85;;
29724;SDS011;16636;48.394;15.468;2022-11-18T04:51:40;87.05;;;34.63;;
29724;SDS011;16636;48.394;15.468;2022-11-18T04:54:07;64.25;;;26.15;;
29724;SDS011;16636;48.394;15.468;2022-11-18T04:56:34;61.30;;;24.77;;
29724;SDS011;16636;48.394;15.468;2022-11-18T04:59:00;50.65;;;20.38;;
29724;SDS011;16636;48.394;15.468;2022-11-18T05:01:27;34.63;;;14.70;;
29724;SDS011;16636;48.394;15.468;2022-11-18T05:03:54;32.00;;;13.95;;
29724;SDS011;16636;48.394;15.468;2022-11-18T05:06:20;34.22;;;13.63;;
29724;SDS011;16636;48.394;15.468;2022-11-18T05:08:46;26.92;;;12.10;;
29724;SDS011;16636;48.394;15.468;2022-11-18T05:11:12;25.50;;;12.63;;
29724;SDS011;16636;48.394;15.468;2022-11-18T05:13:57;31.35;;;12.30;;
29724;SDS011;16636;48.394;15.468;2022-11-18T05:16:23;25.00;;;12.00;;
29724;SDS011;16636;48.394;15.468;2022-11-18T05:18:49;25.13;;;11.93;;
29724;SDS011;16636;48.394;15.468;2022-11-18T05:21:15;25.65;;;11.80;;
29724;SDS011;16636;48.394;15.468;2022-11-18T05:23:41;27.48;;;10.88;;
29724;SDS011;16636;48.394;15.468;2022-11-18T06:07:26;23.23;;;10.65;;
29724;SDS011;16636;48.394;15.468;2022-11-18T06:14:30;21.13;;;9.57;;
29724;SDS011;16636;48.394;15.468;2022-11-18T06:16:47;26.02;;;10.95;;
29724;SDS011;16636;48.394;15.468;2022-11-18T06:19:18;23.92;;;10.35;;
29724;SDS011;16636;48.394;15.468;2022-11-18T06:21:44;23.92;;;9.80;;
29724;SDS011;16636;48.394;15.468;2022-11-18T06:24:11;25.02;;;10.85;;
29724;SDS011;16636;48.394;15.468;2022-11-18T06:37:57;21.35;;;9.38;;
29724;SDS011;16636;48.394;15.468;2022-11-18T06:40:24;25.88;;;11.10;;
29724;SDS011;16636;48.394;15.468;2022-11-18T06:42:49;24.05;;;10.65;;
29724;SDS011;16636;48.394;15.468;2022-11-18T06:45:34;24.05;;;10.07;;
29724;SDS011;16636;48.394;15.468;2022-11-18T06:48:00;25.25;;;11.13;;
29724;SDS011;16636;48.394;15.468;2022-11-18T06:50:26;29.83;;;11.85;;
29724;SDS011;16636;48.394;15.468;2022-11-18T06:52:53;25.75;;;11.07;;
29724;SDS011;16636;48.394;15.468;2022-11-18T06:55:19;24.38;;;10.63;;
29724;SDS011;16636;48.394;15.468;2022-11-18T06:57:45;32.13;;;12.73;;
29724;SDS011;16636;48.394;15.468;2022-11-18T07:00:16;27.05;;;10.98;;
29724;SDS011;16636;48.394;15.468;2022-11-18T07:02:42;21.02;;;10.25;;
29724;SDS011;16636;48.394;15.468;2022-11-18T07:05:08;27.15;;;10.93;;
29724;SDS011;16636;48.394;15.468;2022-11-18T07:07:34;30.17;;;12.02;;
29724;SDS011;16636;48.394;15.468;2022-11-18T07:10:00;21.02;;;11.20;;
29724;SDS011;16636;48.394;15.468;2022-11-18T07:12:26;24.27;;;10.93;;
29724;SDS011;16636;48.394;15.468;2022-11-18T07:14:52;23.27;;;10.55;;
29724;SDS011;16636;48.394;15.468;2022-11-18T07:17:18;29.20;;;11.98;;
29724;SDS011;16636;48.394;15.468;2022-11-18T07:19:44;26.35;;;10.52;;
29724;SDS011;16636;48.394;15.468;2022-11-18T07:22:10;21.92;;;9.63;;
29724;SDS011;16636;48.394;15.468;2022-11-18T07:24:36;29.17;;;11.10;;
29724;SDS011;16636;48.394;15.468;2022-11-18T07:27:02;24.77;;;10.32;;
29724;SDS011;16636;48.394;15.468;2022-11-18T07:29:28;22.05;;;10.20;;
29724;SDS011;16636;48.394;15.468;2022-11-18T07:31:54;29.58;;;11.55;;
29724;SDS011;16636;48.394;15.468;2022-11-18T07:34:20;24.48;;;11.00;;
29724;SDS011;16636;48.394;15.468;2022-11-18T07:36:46;27.17;;;10.25;;
29724;SDS011;16636;48.394;15.468;2022-11-18T07:39:11;22.40;;;9.40;;
29724;SDS011;16636;48.394;15.468;2022-11-18T07:41:38;22.58;;;10.38;;
29724;SDS011;16636;48.394;15.468;2022-11-18T07:44:04;19.38;;;9.32;;
29724;SDS011;16636;48.394;15.468;2022-11-18T07:46:35;23.10;;;10.50;;
29724;SDS011;16636;48.394;15.468;2022-11-18T07:49:03;23.83;;;10.00;;
29724;SDS011;16636;48.394;15.468;2022-11-18T07:51:32;23.27;;;9.65;;
29724;SDS011;16636;48.394;15.468;2022-11-18T07:54:00;24.83;;;10.02;;
29724;SDS011;16636;48.394;15.468;2022-11-18T07:56:29;20.48;;;8.77;;
29724;SDS011;16636;48.394;15.468;2022-11-18T07:58:55;21.33;;;9.45;;
29724;SDS011;16636;48.394;15.468;2022-11-18T08:01:22;20.33;;;9.75;;
29724;SDS011;16636;48.394;15.468;2022-11-18T08:03:51;18.23;;;9.65;;
29724;SDS011;16636;48.394;15.468;2022-11-18T08:06:17;22.05;;;10.18;;
29724;SDS011;16636;48.394;15.468;2022-11-18T08:08:44;27.67;;;11.85;;
29724;SDS011;16636;48.394;15.468;2022-11-18T08:11:11;46.40;;;18.92;;
29724;SDS011;16636;48.394;15.468;2022-11-18T08:13:39;38.25;;;17.38;;
29724;SDS011;16636;48.394;15.468;2022-11-18T08:16:10;29.08;;;13.65;;
29724;SDS011;16636;48.394;15.468;2022-11-18T08:18:42;29.30;;;12.20;;
29724;SDS011;16636;48.394;15.468;2022-11-18T08:21:08;24.77;;;10.40;;
29724;SDS011;16636;48.394;15.468;2022-11-18T08:23:34;20.98;;;10.45;;
29724;SDS011;16636;48.394;15.468;2022-11-18T08:26:05;16.42;;;9.38;;
29724;SDS011;16636;48.394;15.468;2022-11-18T08:28:38;21.90;;;9.85;;
29724;SDS011;16636;48.394;15.468;2022-11-18T08:31:12;21.23;;;10.88;;
29724;SDS011;16636;48.394;15.468;2022-11-18T08:33:42;22.13;;;10.35;;
29724;SDS011;16636;48.394;15.468;2022-11-18T08:36:13;21.42;;;9.45;;
29724;SDS011;16636;48.394;15.468;2022-11-18T08:38:45;20.40;;;9.40;;
29724;SDS011;16636;48.394;15.468;2022-11-18T08:41:14;21.60;;;9.52;;
29724;SDS011;16636;48.394;15.468;2022-11-18T08:43:43;23.75;;;10.63;;
29724;SDS011;16636;48.394;15.468;2022-11-18T08:46:09;20.13;;;10.13;;
29724;SDS011;16636;48.394;15.468;2022-11-18T08:48:35;25.52;;;10.75;;
29724;SDS011;16636;48.394;15.468;2022-11-18T08:51:01;32.33;;;16.08;;
29724;SDS011;16636;48.394;15.468;2022-11-18T08:53:28;25.23;;;10.32;;
29724;SDS011;16636;48.394;15.468;2022-11-18T08:55:57;22.15;;;10.23;;
29724;SDS011;16636;48.394;15.468;2022-11-18T08:58:24;18.33;;;9.88;;
29724;SDS011;16636;48.394;15.468;2022-11-18T09:00:51;17.67;;;8.25;;
29724;SDS011;16636;48.394;15.468;2022-11-18T09:03:17;19.13;;;10.20;;
29724;SDS011;16636;48.394;15.468;2022-11-18T09:05:44;19.05;;;9.45;;
29724;SDS011;16636;48.394;15.468;2022-11-18T09:08:10;16.35;;;8.82;;
29724;SDS011;16636;48.394;15.468;2022-11-18T09:10:36;16.42;;;8.63;;
29724;SDS011;16636;48.394;15.468;2022-11-18T09:13:03;12.40;;;7.00;;
29724;SDS011;16636;48.394;15.468;2022-11-18T09:15:29;13.80;;;7.80;;
29724;SDS011;16636;48.394;15.468;2022-11-18T09:17:57;13.48;;;7.22;;
29724;SDS011;16636;48.394;15.468;2022-11-18T09:20:23;14.40;;;8.15;;
29724;SDS011;16636;48.394;15.468;2022-11-18T09:22:49;14.93;;;7.15;;
29724;SDS011;16636;48.394;15.468;2022-11-18T09:25:15;16.13;;;6.97;;
29724;SDS011;16636;48.394;15.468;2022-11-18T09:27:41;13.75;;;7.35;;
29724;SDS011;16636;48.394;15.468;2022-11-18T09:30:08;14.80;;;7.47;;
29724;SDS011;16636;48.394;15.468;2022-11-18T09:32:34;14.82;;;7.32;;
29724;SDS011;16636;48.394;15.468;2022-11-18T09:37:53;12.52;;;6.82;;
29724;SDS011;16636;48.394;15.468;2022-11-18T09:40:19;19.48;;;8.27;;
29724;SDS011;16636;48.394;15.468;2022-11-18T09:42:52;16.25;;;9.20;;
29724;SDS011;16636;48.394;15.468;2022-11-18T09:45:42;43.80;;;19.90;;
29724;SDS011;16636;48.394;15.468;2022-11-18T09:48:18;25.02;;;12.40;;
29724;SDS011;16636;48.394;15.468;2022-11-18T09:51:08;123.93;;;41.28;;
29724;SDS011;16636;48.394;15.468;2022-11-18T09:53:35;65.22;;;26.52;;
29724;SDS011;16636;48.394;15.468;2022-11-18T09:56:13;35.10;;;14.80;;
29724;SDS011;16636;48.394;15.468;2022-11-18T09:58:45;15.40;;;7.22;;
29724;SDS011;16636;48.394;15.468;2022-11-18T10:01:12;11.68;;;6.20;;
29724;SDS011;16636;48.394;15.468;2022-11-18T10:03:42;12.20;;;6.22;;
29724;SDS011;16636;48.394;15.468;2022-11-18T10:22:39;13.20;;;6.23;;
29724;SDS011;16636;48.394;15.468;2022-11-18T10:25:13;34.90;;;18.52;;
29724;SDS011;16636;48.394;15.468;2022-11-18T10:27:41;13.00;;;7.68;;
29724;SDS011;16636;48.394;15.468;2022-11-18T10:30:16;22.08;;;12.77;;
29724;SDS011;16636;48.394;15.468;2022-11-18T10:33:03;12.15;;;6.68;;
29724;SDS011;16636;48.394;15.468;2022-11-18T10:35:48;16.77;;;9.05;;
29724;SDS011;16636;48.394;15.468;2022-11-18T10:38:15;145.90;;;41.75;;
29724;SDS011;16636;48.394;15.468;2022-11-18T10:48:41;14.38;;;7.43;;
29724;SDS011;16636;48.394;15.468;2022-11-18T10:51:20;24.33;;;13.90;;
29724;SDS011;16636;48.394;15.468;2022-11-18T10:53:48;16.48;;;7.15;;
29724;SDS011;16636;48.394;15.468;2022-11-18T10:56:14;9.93;;;6.35;;
29724;SDS011;16636;48.394;15.468;2022-11-18T10:58:44;11.20;;;6.78;;
29724;SDS011;16636;48.394;15.468;2022-11-18T11:01:20;8.23;;;4.88;;
29724;SDS011;16636;48.394;15.468;2022-11-18T11:08:55;7.80;;;3.97;;
29724;SDS011;16636;48.394;15.468;2022-11-18T11:11:33;4.97;;;3.65;;
29724;SDS011;16636;48.394;15.468;2022-11-18T11:17:24;4.97;;;3.28;;
29724;SDS011;16636;48.394;15.468;2022-11-18T11:22:30;7.82;;;4.55;;
29724;SDS011;16636;48.394;15.468;2022-11-18T11:24:57;5.60;;;3.28;;
29724;SDS011;16636;48.394;15.468;2022-11-18T11:27:32;6.85;;;3.65;;
29724;SDS011;16636;48.394;15.468;2022-11-18T11:30:17;10.77;;;5.30;;
29724;SDS011;16636;48.394;15.468;2022-11-18T11:35:41;5.70;;;3.88;;
29724;SDS011;16636;48.394;15.468;2022-11-18T11:41:30;13.95;;;6.50;;
29724;SDS011;16636;48.394;15.468;2022-11-18T11:47:11;11.27;;;5.28;;
29724;SDS011;16636;48.394;15.468;2022-11-18T11:56:11;5.22;;;3.38;;
29724;SDS011;16636;48.394;15.468;2022-11-18T12:01:36;19.40;;;7.78;;
29724;SDS011;16636;48.394;15.468;2022-11-18T12:07:13;5.47;;;3.55;;
29724;SDS011;16636;48.394;15.468;2022-11-18T12:09:54;12.32;;;5.22;;
29724;SDS011;16636;48.394;15.468;2022-11-18T12:15:37;9.32;;;4.50;;
29724;SDS011;16636;48.394;15.468;2022-11-18T12:18:28;11.23;;;6.00;;
29724;SDS011;16636;48.394;15.468;2022-11-18T12:24:32;7.00;;;4.05;;
29724;SDS011;16636;48.394;15.468;2022-11-18T12:27:04;10.85;;;5.10;;
29724;SDS011;16636;48.394;15.468;2022-11-18T12:43:02;2.40;;;1.70;;
29724;SDS011;16636;48.394;15.468;2022-11-18T12:45:50;3.28;;;2.42;;
29724;SDS011;16636;48.394;15.468;2022-11-18T12:48:28;4.10;;;2.90;;
29724;SDS011;16636;48.394;15.468;2022-11-18T12:51:01;39.15;;;17.15;;
29724;SDS011;16636;48.394;15.468;2022-11-18T12:57:03;10.55;;;5.32;;
29724;SDS011;16636;48.394;15.468;2022-11-18T12:59:35;7.53;;;4.00;;
29724;SDS011;16636;48.394;15.468;2022-11-18T13:05:03;10.10;;;5.53;;
29724;SDS011;16636;48.394;15.468;2022-11-18T13:07:33;12.90;;;6.78;;
29724;SDS011;16636;48.394;15.468;2022-11-18T13:10:28;15.60;;;7.85;;
29724;SDS011;16636;48.394;15.468;2022-11-18T13:13:03;13.13;;;7.32;;
29724;SDS011;16636;48.394;15.468;2022-11-18T13:15:29;14.13;;;7.57;;
29724;SDS011;16636;48.394;15.468;2022-11-18T13:18:18;14.55;;;8.07;;
29724;SDS011;16636;48.394;15.468;2022-11-18T13:20:55;17.90;;;9.43;;
29724;SDS011;16636;48.394;15.468;2022-11-18T13:23:25;27.00;;;13.13;;
29724;SDS011;16636;48.394;15.468;2022-11-18T13:26:14;27.83;;;12.60;;
29724;SDS011;16636;48.394;15.468;2022-11-18T13:28:45;19.88;;;11.30;;
29724;SDS011;16636;48.394;15.468;2022-11-18T13:34:25;22.33;;;11.48;;
29724;SDS011;16636;48.394;15.468;2022-11-18T13:36:53;32.03;;;10.77;;
29724;SDS011;16636;48.394;15.468;2022-11-18T13:42:05;22.15;;;10.23;;
29724;SDS011;16636;48.394;15.468;2022-11-18T13:44:42;20.27;;;11.35;;
29724;SDS011;16636;48.394;15.468;2022-11-18T13:52:31;15.20;;;8.32;;
29724;SDS011;16636;48.394;15.468;2022-11-18T13:55:23;20.25;;;7.43;;
29724;SDS011;16636;48.394;15.468;2022-11-18T13:57:53;18.48;;;8.82;;
29724;SDS011;16636;48.394;15.468;2022-11-18T14:00:28;19.17;;;8.50;;
29724;SDS011;16636;48.394;15.468;2022-11-18T14:02:58;14.40;;;8.57;;
29724;SDS011;16636;48.394;15.468;2022-11-18T14:05:28;15.98;;;8.35;;
29724;SDS011;16636;48.394;15.468;2022-11-18T14:08:04;18.02;;;8.95;;
29724;SDS011;16636;48.394;15.468;2022-11-18T14:10:33;18.38;;;8.05;;
29724;SDS011;16636;48.394;15.468;2022-11-18T14:13:15;20.27;;;9.00;;
29724;SDS011;16636;48.394;15.468;2022-11-18T14:15:57;15.88;;;7.70;;
29724;SDS011;16636;48.394;15.468;2022-11-18T14:21:26;19.05;;;8.35;;
29724;SDS011;16636;48.394;15.468;2022-11-18T14:23:53;17.65;;;7.70;;
29724;SDS011;16636;48.394;15.468;2022-11-18T14:26:29;14.73;;;8.07;;
29724;SDS011;16636;48.394;15.468;2022-11-18T14:29:13;17.70;;;7.30;;
29724;SDS011;16636;48.394;15.468;2022-11-18T14:32:01;16.42;;;6.78;;
29724;SDS011;16636;48.394;15.468;2022-11-18T14:34:29;14.37;;;6.00;;
29724;SDS011;16636;48.394;15.468;2022-11-18T14:36:55;9.55;;;5.10;;
29724;SDS011;16636;48.394;15.468;2022-11-18T14:39:25;9.80;;;5.18;;
29724;SDS011;16636;48.394;15.468;2022-11-18T14:41:56;12.63;;;4.80;;
29724;SDS011;16636;48.394;15.468;2022-11-18T14:44:23;8.85;;;3.92;;
29724;SDS011;16636;48.394;15.468;2022-11-18T14:46:56;7.57;;;3.75;;
29724;SDS011;16636;48.394;15.468;2022-11-18T14:49:25;7.20;;;3.55;;
29724;SDS011;16636;48.394;15.468;2022-11-18T14:51:52;5.78;;;3.05;;
29724;SDS011;16636;48.394;15.468;2022-11-18T14:54:20;6.25;;;2.97;;
29724;SDS011;16636;48.394;15.468;2022-11-18T14:56:49;7.15;;;2.47;;
29724;SDS011;16636;48.394;15.468;2022-11-18T14:59:18;3.70;;;2.00;;
29724;SDS011;16636;48.394;15.468;2022-11-18T15:01:45;4.40;;;2.20;;
29724;SDS011;16636;48.394;15.468;2022-11-18T15:04:11;5.45;;;2.13;;
29724;SDS011;16636;48.394;15.468;2022-11-18T15:06:39;5.22;;;2.90;;
29724;SDS011;16636;48.394;15.468;2022-11-18T15:09:23;3.67;;;2.42;;
29724;SDS011;16636;48.394;15.468;2022-11-18T15:11:49;5.15;;;2.67;;
29724;SDS011;16636;48.394;15.468;2022-11-18T15:14:15;6.68;;;3.75;;
29724;SDS011;16636;48.394;15.468;2022-11-18T15:16:41;9.05;;;4.30;;
29724;SDS011;16636;48.394;15.468;2022-11-18T15:19:14;12.25;;;4.60;;
29724;SDS011;16636;48.394;15.468;2022-11-18T15:21:40;14.18;;;5.80;;
29724;SDS011;16636;48.394;15.468;2022-11-18T15:24:07;14.88;;;6.95;;
29724;SDS011;16636;48.394;15.468;2022-11-18T15:26:34;10.57;;;4.97;;
29724;SDS011;16636;48.394;15.468;2022-11-18T15:29:03;5.97;;;3.40;;
29724;SDS011;16636;48.394;15.468;2022-11-18T15:31:29;7.68;;;3.80;;
29724;SDS011;16636;48.394;15.468;2022-11-18T15:33:55;15.95;;;6.30;;
29724;SDS011;16636;48.394;15.468;2022-11-18T15:36:22;8.40;;;4.05;;
29724;SDS011;16636;48.394;15.468;2022-11-18T15:38:50;5.70;;;3.38;;
29724;SDS011;16636;48.394;15.468;2022-11-18T15:41:18;4.70;;;2.72;;
29724;SDS011;16636;48.394;15.468;2022-11-18T15:43:46;5.88;;;3.42;;
29724;SDS011;16636;48.394;15.468;2022-11-18T15:46:13;7.03;;;3.83;;
29724;SDS011;16636;48.394;15.468;2022-11-18T15:48:40;3.60;;;2.75;;
29724;SDS011;16636;48.394;15.468;2022-11-18T15:51:21;7.15;;;3.40;;
29724;SDS011;16636;48.394;15.468;2022-11-18T15:53:49;6.65;;;3.50;;
29724;SDS011;16636;48.394;15.468;2022-11-18T15:58:53;6.55;;;3.65;;
29724;SDS011;16636;48.394;15.468;2022-11-18T16:01:31;8.13;;;3.50;;
29724;SDS011;16636;48.394;15.468;2022-11-18T16:03:58;5.25;;;3.15;;
29724;SDS011;16636;48.394;15.468;2022-11-18T16:06:25;4.50;;;2.97;;
29724;SDS011;16636;48.394;15.468;2022-11-18T16:08:51;5.22;;;3.10;;
29724;SDS011;16636;48.394;15.468;2022-11-18T16:11:18;12.23;;;5.50;;
29724;SDS011;16636;48.394;15.468;2022-11-18T16:14:03;6.40;;;3.92;;
29724;SDS011;16636;48.394;15.468;2022-11-18T16:16:31;7.00;;;5.03;;
29724;SDS011;16636;48.394;15.468;2022-11-18T16:19:02;4.68;;;3.40;;
29724;SDS011;16636;48.394;15.468;2022-11-18T16:21:30;6.85;;;2.97;;
29724;SDS011;16636;48.394;15.468;2022-11-18T16:23:59;6.05;;;4.03;;
29724;SDS011;16636;48.394;15.468;2022-11-18T16:26:26;8.32;;;3.47;;
29724;SDS011;16636;48.394;15.468;2022-11-18T16:28:55;6.70;;;3.63;;
29724;SDS011;16636;48.394;15.468;2022-11-18T16:31:21;6.22;;;3.22;;
29724;SDS011;16636;48.394;15.468;2022-11-18T16:36:41;7.53;;;3.90;;
29724;SDS011;16636;48.394;15.468;2022-11-18T16:39:09;15.43;;;7.35;;
29724;SDS011;16636;48.394;15.468;2022-11-18T16:41:38;12.10;;;6.88;;
29724;SDS011;16636;48.394;15.468;2022-11-18T16:44:06;13.43;;;7.20;;
29724;SDS011;16636;48.394;15.468;2022-11-18T16:46:34;16.80;;;7.75;;
29724;SDS011;16636;48.394;15.468;2022-11-18T16:49:02;13.18;;;6.72;;
29724;SDS011;16636;48.394;15.468;2022-11-18T16:51:29;12.85;;;6.43;;
29724;SDS011;16636;48.394;15.468;2022-11-18T16:53:58;10.90;;;6.65;;
29724;SDS011;16636;48.394;15.468;2022-11-18T16:56:30;14.18;;;7.32;;
29724;SDS011;16636;48.394;15.468;2022-11-18T16:59:09;20.70;;;10.70;;
29724;SDS011;16636;48.394;15.468;2022-11-18T17:01:37;19.92;;;8.13;;
29724;SDS011;16636;48.394;15.468;2022-11-18T17:04:03;21.88;;;9.07;;
29724;SDS011;16636;48.394;15.468;2022-11-18T17:06:29;19.15;;;7.82;;
29724;SDS011;16636;48.394;15.468;2022-11-18T17:09:04;15.88;;;7.53;;
29724;SDS011;16636;48.394;15.468;2022-11-18T17:11:30;19.02;;;7.32;;
29724;SDS011;16636;48.394;15.468;2022-11-18T17:13:57;15.82;;;7.32;;
29724;SDS011;16636;48.394;15.468;2022-11-18T17:16:23;19.63;;;7.85;;
29724;SDS011;16636;48.394;15.468;2022-11-18T17:18:56;14.98;;;6.93;;
29724;SDS011;16636;48.394;15.468;2022-11-18T17:21:24;12.13;;;6.35;;
29724;SDS011;16636;48.394;15.468;2022-11-18T17:23:51;9.15;;;5.35;;
29724;SDS011;16636;48.394;15.468;2022-11-18T17:26:19;11.60;;;6.00;;
29724;SDS011;16636;48.394;15.468;2022-11-18T17:28:47;8.52;;;4.60;;
29724;SDS011;16636;48.394;15.468;2022-11-18T17:31:13;9.40;;;4.55;;
29724;SDS011;16636;48.394;15.468;2022-11-18T17:33:43;8.32;;;4.70;;
29724;SDS011;16636;48.394;15.468;2022-11-18T17:36:11;9.35;;;4.75;;
29724;SDS011;16636;48.394;15.468;2022-11-18T17:38:39;8.32;;;5.07;;
29724;SDS011;16636;48.394;15.468;2022-11-18T17:41:08;9.25;;;4.38;;
29724;SDS011;16636;48.394;15.468;2022-11-18T17:43:55;9.43;;;5.43;;
29724;SDS011;16636;48.394;15.468;2022-11-18T17:46:22;11.60;;;6.53;;